Nearby METAR Reports

 

KSYN - Stanton, Minnesota, USA
Distance from station: NW 20mi, 33km
Updated: Tue, 26-Oct-2021 8:15pm CDT
Overcast
Overcast
 Wind from ESE
Wind: ESE 12 mph , 19 km/h
Temperature: 50°F , 10°C
Wind Chill: 45°F , 7°C
Dew Point: 34°F , 1°C
Humidity: 54%
Barometer: 29.90 inHg , 1012.5 hPa
Clouds: Overcast
Visibility: 10 miles , 16 km
Cloud details: Overcast 7000 ft
2021/10/27 01:15 KSYN 270115Z AUTO 12010KT 10SM OVC070 10/01 A2990 RMK AO2 T01000013
KTOB - Dodge Center, Minnesota, USA
Distance from station: SSW 21mi, 34km
Updated: Tue, 26-Oct-2021 8:15pm CDT

 Wind from ESE
Wind: ESE 14 mph , 22 km/h
Temperature: 46°F , 8°C
Wind Chill: 40°F , 4°C
Dew Point: 34°F , 1°C
Humidity: 62%
Barometer: 29.90 inHg , 1012.5 hPa
Visibility: 10 miles , 16 km
2021/10/27 01:15 KTOB 270115Z AUTO 11012KT 10SM 08/01 A2990 RMK AO2 PWINO
K9MN - St Mary Hospital, Minnesota, USA
Distance from station: SSE 22mi, 35km
Updated: Tue, 26-Oct-2021 8:15pm CDT
Clear
Clear
 Wind from E
Wind: E 12 mph , 19 km/h, Gust: 17 mph , 28 km/h
Temperature: 48°F , 9°C
Wind Chill: 43°F , 6°C
Dew Point: 34°F , 1°C
Humidity: 58%
Barometer: 29.93 inHg , 1013.5 hPa
Clouds: Clear
Visibility: 10 miles , 16 km
2021/10/27 01:15 K9MN 270115Z AUTO 10010G15KT 10SM CLR 09/01 A2993 RMK AO1 T00920010
 
KRGK - Red Wing, Minnesota, USA
Distance from station: NNE 22mi, 35km
Updated: Tue, 26-Oct-2021 8:15pm CDT
Clear
Clear
 Wind from ESE
Wind: ESE 9 mph , 15 km/h
Temperature: 50°F , 10°C
Wind Chill: 46°F , 8°C
Dew Point: 30°F , -1°C
Humidity: 47%
Barometer: 29.93 inHg , 1013.5 hPa
Clouds: Clear
Visibility: 10 miles , 16 km
2021/10/27 01:15 KRGK 270115Z AUTO 11008KT 10SM CLR 10/M01 A2993 RMK AO2
KRST - Rochester, Minnesota, USA
Distance from station: SSE 29mi, 47km
Updated: Tue, 26-Oct-2021 7:54pm CDT
Clear
Clear
 Wind from ESE
Wind: ESE 14 mph , 22 km/h
Temperature: 45°F , 7°C
Wind Chill: 39°F , 4°C
Dew Point: 36°F , 2°C
Humidity: 71%
Barometer: 29.93 inHg , 1013.5 hPa
Clouds: Clear
Visibility: 10 miles , 16 km
2021/10/27 00:54 KRST 270054Z 12012KT 10SM CLR 07/02 A2993 RMK AO2 SLP146 T00720017
KOWA - Owatonna, Minnesota, USA
Distance from station: WSW 31mi, 50km
Updated: Tue, 26-Oct-2021 8:13pm CDT
Overcast
Overcast
 Wind from ESE
Wind: ESE 18 mph , 30 km/h, Gust: 26 mph , 43 km/h
Temperature: 52°F , 11°C
Dew Point: 37°F , 3°C
Humidity: 58%
Barometer: 29.88 inHg , 1011.9 hPa
Clouds: Overcast
Visibility: 10 miles , 16 km
Cloud details: Overcast 7000 ft
2021/10/27 01:13 KOWA 270113Z AUTO 11016G23KT 10SM OVC070 11/03 A2988 RMK AO2
 
KFBL - Faribault Muni, Minnesota, USA
Distance from station: W 32mi, 51km
Updated: Tue, 26-Oct-2021 8:15pm CDT
Overcast
Overcast
 Wind from E
Wind: E 15 mph , 24 km/h, Gust: 23 mph , 37 km/h
Temperature: 52°F , 11°C
Dew Point: 36°F , 2°C
Humidity: 54%
Barometer: 29.89 inHg , 1012.2 hPa
Clouds: Overcast
Visibility: 10 miles , 16 km
Cloud details: Overcast 7000 ft
2021/10/27 01:15 KFBL 270115Z AUTO 10013G20KT 10SM OVC070 11/02 A2989 RMK AO2
KSGS - South St Paul, Minnesota, USA
Distance from station: NNW 43mi, 69km
Updated: Tue, 26-Oct-2021 8:15pm CDT
Clear
Clear
 Wind from SE
Wind: SE 8 mph , 13 km/h
Temperature: 50°F , 10°C
Wind Chill: 47°F , 8°C
Dew Point: 30°F , -1°C
Humidity: 47%
Barometer: 29.92 inHg , 1013.2 hPa
Clouds: Clear
Visibility: 10 miles , 16 km
2021/10/27 01:15 KSGS 270115Z AUTO 13007KT 10SM CLR 10/M01 A2992 RMK AO2 T01021007
KAUM - Austin Muni, Minnesota, USA
Distance from station: SSW 46mi, 73km
Updated: Tue, 26-Oct-2021 8:15pm CDT
Clear
Clear
 Wind from ESE
Wind: ESE 15 mph , 24 km/h
Temperature: 48°F , 9°C
Wind Chill: 42°F , 6°C
Dew Point: 39°F , 4°C
Humidity: 71%
Barometer: 29.89 inHg , 1012.2 hPa
Clouds: Clear
Visibility: 10 miles , 16 km
2021/10/27 01:15 KAUM 270115Z AUTO 12013KT 10SM CLR 09/04 A2989 RMK AO2
 
KACQ - Waseca, Minnesota, USA
Distance from station: WSW 46mi, 75km
Updated: Tue, 26-Oct-2021 8:15pm CDT
Overcast
Overcast
 Wind from ESE
Wind: ESE 20 mph , 31 km/h, Gust: 26 mph , 43 km/h
Temperature: 50°F , 10°C
Wind Chill: 44°F , 7°C
Dew Point: 36°F , 2°C
Humidity: 58%
Barometer: 29.87 inHg , 1011.5 hPa
Clouds: Overcast
Visibility: 10 miles , 16 km
Cloud details: Overcast 6500 ft
2021/10/27 01:15 KACQ 270115Z AUTO 11017G23KT 10SM OVC065 10/02 A2987 RMK AO2
KSTP - St. Paul, Minnesota, USA
Distance from station: NNW 47mi, 76km
Updated: Tue, 26-Oct-2021 7:53pm CDT
Clear
Clear
 Wind from ESE
Wind: ESE 9 mph , 15 km/h
Temperature: 52°F , 11°C
Dew Point: 32°F , 0°C
Humidity: 47%
Barometer: 29.93 inHg , 1013.5 hPa
Clouds: Clear
Visibility: 10 miles , 16 km
2021/10/27 00:53 KSTP 270053Z 11008KT 10SM CLR 11/00 A2993 RMK AO2 SLP136 T01060000
KMSP - Minneapolis, Minnesota, USA
Distance from station: NW 49mi, 78km
Updated: Tue, 26-Oct-2021 7:53pm CDT
Few Clouds
Few Clouds
 Wind from ESE
Wind: ESE 13 mph , 20 km/h
Temperature: 50°F , 10°C
Wind Chill: 45°F , 7°C
Dew Point: 30°F , -1°C
Humidity: 47%
Barometer: 29.91 inHg , 1012.9 hPa
Clouds: Few Clouds
Visibility: 10 miles , 16 km
Cloud details: Few Clouds 25000 ft
2021/10/27 00:53 KMSP 270053Z 11011KT 10SM FEW250 10/M01 A2991 RMK AO2 PK WND 13028/0003 SLP134 T01001006